sensor_id;sensor_type;location;lat;lon;timestamp;temperature;humidity
8188;DHT22;4135;49.184;9.722;2022-12-10T00:01:51;17.60;44.40
8188;DHT22;4135;49.184;9.722;2022-12-10T00:04:21;17.60;44.40
8188;DHT22;4135;49.184;9.722;2022-12-10T00:06:50;17.60;44.50
8188;DHT22;4135;49.184;9.722;2022-12-10T00:09:20;17.60;44.40
8188;DHT22;4135;49.184;9.722;2022-12-10T00:11:50;17.60;44.40
8188;DHT22;4135;49.184;9.722;2022-12-10T00:14:20;17.60;44.40
8188;DHT22;4135;49.184;9.722;2022-12-10T00:16:49;17.60;44.40
8188;DHT22;4135;49.184;9.722;2022-12-10T00:19:19;17.60;44.40
8188;DHT22;4135;49.184;9.722;2022-12-10T00:21:48;17.60;44.40
8188;DHT22;4135;49.184;9.722;2022-12-10T00:24:18;17.60;44.40
8188;DHT22;4135;49.184;9.722;2022-12-10T00:26:47;17.60;44.40
8188;DHT22;4135;49.184;9.722;2022-12-10T00:29:17;17.60;44.40
8188;DHT22;4135;49.184;9.722;2022-12-10T00:31:46;17.60;44.40
8188;DHT22;4135;49.184;9.722;2022-12-10T00:34:16;17.60;44.30
8188;DHT22;4135;49.184;9.722;2022-12-10T00:36:47;17.60;44.40
8188;DHT22;4135;49.184;9.722;2022-12-10T00:39:20;17.60;45.00
8188;DHT22;4135;49.184;9.722;2022-12-10T00:41:49;17.60;44.30
8188;DHT22;4135;49.184;9.722;2022-12-10T00:44:19;17.60;44.40
8188;DHT22;4135;49.184;9.722;2022-12-10T00:46:48;17.60;44.30
8188;DHT22;4135;49.184;9.722;2022-12-10T00:49:18;17.60;44.30
8188;DHT22;4135;49.184;9.722;2022-12-10T00:51:47;17.60;44.30
8188;DHT22;4135;49.184;9.722;2022-12-10T00:54:17;17.60;44.30
8188;DHT22;4135;49.184;9.722;2022-12-10T00:56:46;17.60;44.40
8188;DHT22;4135;49.184;9.722;2022-12-10T00:59:16;17.60;44.30
8188;DHT22;4135;49.184;9.722;2022-12-10T01:01:46;17.60;44.20
8188;DHT22;4135;49.184;9.722;2022-12-10T01:04:17;17.60;44.30
8188;DHT22;4135;49.184;9.722;2022-12-10T01:06:52;17.60;44.20
8188;DHT22;4135;49.184;9.722;2022-12-10T01:09:25;17.60;44.30
8188;DHT22;4135;49.184;9.722;2022-12-10T01:11:56;17.60;44.30
8188;DHT22;4135;49.184;9.722;2022-12-10T01:14:30;17.60;44.20
8188;DHT22;4135;49.184;9.722;2022-12-10T01:17:03;17.60;44.30
8188;DHT22;4135;49.184;9.722;2022-12-10T01:19:33;17.60;44.40
8188;DHT22;4135;49.184;9.722;2022-12-10T01:22:03;17.60;44.30
8188;DHT22;4135;49.184;9.722;2022-12-10T01:24:33;17.60;44.30
8188;DHT22;4135;49.184;9.722;2022-12-10T01:27:03;17.60;44.30
8188;DHT22;4135;49.184;9.722;2022-12-10T01:29:33;17.60;44.30
8188;DHT22;4135;49.184;9.722;2022-12-10T01:32:03;17.60;44.30
8188;DHT22;4135;49.184;9.722;2022-12-10T01:34:33;17.60;44.30
8188;DHT22;4135;49.184;9.722;2022-12-10T01:37:02;17.60;44.20
8188;DHT22;4135;49.184;9.722;2022-12-10T01:39:32;17.60;44.20
8188;DHT22;4135;49.184;9.722;2022-12-10T01:42:02;17.60;44.20
8188;DHT22;4135;49.184;9.722;2022-12-10T01:47:01;17.60;44.30
8188;DHT22;4135;49.184;9.722;2022-12-10T01:49:34;17.60;44.30
8188;DHT22;4135;49.184;9.722;2022-12-10T01:52:06;17.60;44.20
8188;DHT22;4135;49.184;9.722;2022-12-10T01:54:39;17.60;44.20
8188;DHT22;4135;49.184;9.722;2022-12-10T01:57:21;17.60;44.20
8188;DHT22;4135;49.184;9.722;2022-12-10T01:59:55;17.60;44.20
8188;DHT22;4135;49.184;9.722;2022-12-10T02:05:17;17.60;44.20
8188;DHT22;4135;49.184;9.722;2022-12-10T02:10:48;17.60;44.20
8188;DHT22;4135;49.184;9.722;2022-12-10T02:13:47;17.60;44.20
8188;DHT22;4135;49.184;9.722;2022-12-10T02:16:28;17.60;44.20
8188;DHT22;4135;49.184;9.722;2022-12-10T02:19:21;17.60;44.10
8188;DHT22;4135;49.184;9.722;2022-12-10T02:21:55;17.60;44.20
8188;DHT22;4135;49.184;9.722;2022-12-10T02:24:29;17.60;44.20
8188;DHT22;4135;49.184;9.722;2022-12-10T02:27:06;17.60;44.20
8188;DHT22;4135;49.184;9.722;2022-12-10T02:29:40;17.60;44.20
8188;DHT22;4135;49.184;9.722;2022-12-10T02:32:35;17.60;44.20
8188;DHT22;4135;49.184;9.722;2022-12-10T02:35:11;17.60;44.20
8188;DHT22;4135;49.184;9.722;2022-12-10T02:37:47;17.60;44.10
8188;DHT22;4135;49.184;9.722;2022-12-10T02:40:23;17.60;44.20
8188;DHT22;4135;49.184;9.722;2022-12-10T02:42:54;17.60;44.20
8188;DHT22;4135;49.184;9.722;2022-12-10T02:45:26;17.60;44.10
8188;DHT22;4135;49.184;9.722;2022-12-10T02:47:58;17.60;44.10
8188;DHT22;4135;49.184;9.722;2022-12-10T02:50:29;17.60;44.10
8188;DHT22;4135;49.184;9.722;2022-12-10T02:52:58;17.60;44.00
8188;DHT22;4135;49.184;9.722;2022-12-10T02:55:40;17.60;44.10
8188;DHT22;4135;49.184;9.722;2022-12-10T02:58:28;17.60;44.70
8188;DHT22;4135;49.184;9.722;2022-12-10T03:01:10;17.60;44.00
8188;DHT22;4135;49.184;9.722;2022-12-10T03:06:49;17.60;44.10
8188;DHT22;4135;49.184;9.722;2022-12-10T03:09:26;17.60;44.10
8188;DHT22;4135;49.184;9.722;2022-12-10T03:12:09;17.60;44.00
8188;DHT22;4135;49.184;9.722;2022-12-10T03:14:44;17.60;44.00
8188;DHT22;4135;49.184;9.722;2022-12-10T03:17:14;17.60;43.90
8188;DHT22;4135;49.184;9.722;2022-12-10T03:19:47;17.60;44.00
8188;DHT22;4135;49.184;9.722;2022-12-10T03:22:19;17.60;44.10
8188;DHT22;4135;49.184;9.722;2022-12-10T03:24:49;17.60;44.00
8188;DHT22;4135;49.184;9.722;2022-12-10T03:27:21;17.60;44.00
8188;DHT22;4135;49.184;9.722;2022-12-10T03:29:55;17.60;44.00
8188;DHT22;4135;49.184;9.722;2022-12-10T03:32:27;17.60;44.10
8188;DHT22;4135;49.184;9.722;2022-12-10T03:34:58;17.60;44.60
8188;DHT22;4135;49.184;9.722;2022-12-10T03:37:29;17.60;43.90
8188;DHT22;4135;49.184;9.722;2022-12-10T03:39:59;17.60;44.10
8188;DHT22;4135;49.184;9.722;2022-12-10T03:42:29;17.60;43.90
8188;DHT22;4135;49.184;9.722;2022-12-10T03:44:58;17.60;44.00
8188;DHT22;4135;49.184;9.722;2022-12-10T03:47:28;17.60;44.00
8188;DHT22;4135;49.184;9.722;2022-12-10T03:49:57;17.60;44.00
8188;DHT22;4135;49.184;9.722;2022-12-10T03:52:27;17.60;44.00
8188;DHT22;4135;49.184;9.722;2022-12-10T03:54:56;17.60;44.00
8188;DHT22;4135;49.184;9.722;2022-12-10T03:57:26;17.60;44.00
8188;DHT22;4135;49.184;9.722;2022-12-10T03:59:56;17.70;44.10
8188;DHT22;4135;49.184;9.722;2022-12-10T04:02:25;17.60;44.00
8188;DHT22;4135;49.184;9.722;2022-12-10T04:04:55;17.60;43.90
8188;DHT22;4135;49.184;9.722;2022-12-10T04:07:24;17.60;43.90
8188;DHT22;4135;49.184;9.722;2022-12-10T04:09:54;17.60;44.00
8188;DHT22;4135;49.184;9.722;2022-12-10T04:12:23;17.60;44.60
8188;DHT22;4135;49.184;9.722;2022-12-10T04:14:53;17.60;43.90
8188;DHT22;4135;49.184;9.722;2022-12-10T04:17:41;17.60;43.90
8188;DHT22;4135;49.184;9.722;2022-12-10T04:20:11;17.60;43.90
8188;DHT22;4135;49.184;9.722;2022-12-10T04:23:00;17.60;43.90
8188;DHT22;4135;49.184;9.722;2022-12-10T04:25:48;17.60;43.90
8188;DHT22;4135;49.184;9.722;2022-12-10T04:28:36;17.60;43.90
8188;DHT22;4135;49.184;9.722;2022-12-10T04:31:06;17.60;43.90
8188;DHT22;4135;49.184;9.722;2022-12-10T04:33:35;17.60;43.90
8188;DHT22;4135;49.184;9.722;2022-12-10T04:36:05;17.60;43.90
8188;DHT22;4135;49.184;9.722;2022-12-10T04:38:34;17.60;43.90
8188;DHT22;4135;49.184;9.722;2022-12-10T04:41:04;17.60;43.90
8188;DHT22;4135;49.184;9.722;2022-12-10T04:43:44;17.60;43.90
8188;DHT22;4135;49.184;9.722;2022-12-10T04:46:14;17.60;43.80
8188;DHT22;4135;49.184;9.722;2022-12-10T04:48:43;17.60;43.90
8188;DHT22;4135;49.184;9.722;2022-12-10T04:51:13;17.60;43.90
8188;DHT22;4135;49.184;9.722;2022-12-10T04:53:42;17.60;43.90
8188;DHT22;4135;49.184;9.722;2022-12-10T04:56:12;17.60;43.80
8188;DHT22;4135;49.184;9.722;2022-12-10T04:58:41;17.60;43.90
8188;DHT22;4135;49.184;9.722;2022-12-10T05:01:11;17.60;43.80
8188;DHT22;4135;49.184;9.722;2022-12-10T05:03:41;17.60;43.80
8188;DHT22;4135;49.184;9.722;2022-12-10T05:06:14;17.60;43.80
8188;DHT22;4135;49.184;9.722;2022-12-10T05:08:44;17.60;43.90
8188;DHT22;4135;49.184;9.722;2022-12-10T05:11:16;17.60;43.90
8188;DHT22;4135;49.184;9.722;2022-12-10T05:13:46;17.60;43.80
8188;DHT22;4135;49.184;9.722;2022-12-10T05:16:18;17.60;43.80
8188;DHT22;4135;49.184;9.722;2022-12-10T05:18:49;17.60;43.90
8188;DHT22;4135;49.184;9.722;2022-12-10T05:21:19;17.60;43.80
8188;DHT22;4135;49.184;9.722;2022-12-10T05:23:51;17.60;43.80
8188;DHT22;4135;49.184;9.722;2022-12-10T05:26:23;17.60;43.80
8188;DHT22;4135;49.184;9.722;2022-12-10T05:28:54;17.60;43.80
8188;DHT22;4135;49.184;9.722;2022-12-10T05:31:27;17.60;43.70
8188;DHT22;4135;49.184;9.722;2022-12-10T05:33:58;17.60;43.70
8188;DHT22;4135;49.184;9.722;2022-12-10T05:36:29;17.60;43.70
8188;DHT22;4135;49.184;9.722;2022-12-10T05:38:59;17.50;43.60
8188;DHT22;4135;49.184;9.722;2022-12-10T05:41:31;17.60;43.70
8188;DHT22;4135;49.184;9.722;2022-12-10T05:44:03;17.60;43.80
8188;DHT22;4135;49.184;9.722;2022-12-10T05:46:33;17.60;43.70
8188;DHT22;4135;49.184;9.722;2022-12-10T05:49:04;17.60;43.70
8188;DHT22;4135;49.184;9.722;2022-12-10T05:51:36;17.60;43.70
8188;DHT22;4135;49.184;9.722;2022-12-10T05:54:07;17.60;43.60
8188;DHT22;4135;49.184;9.722;2022-12-10T05:56:38;17.60;43.70
8188;DHT22;4135;49.184;9.722;2022-12-10T05:59:08;17.60;43.60
8188;DHT22;4135;49.184;9.722;2022-12-10T06:01:38;17.60;43.70
8188;DHT22;4135;49.184;9.722;2022-12-10T06:04:08;17.60;43.70
8188;DHT22;4135;49.184;9.722;2022-12-10T06:06:39;17.60;43.60
8188;DHT22;4135;49.184;9.722;2022-12-10T06:09:12;17.60;43.60
8188;DHT22;4135;49.184;9.722;2022-12-10T06:11:42;17.60;43.60
8188;DHT22;4135;49.184;9.722;2022-12-10T06:14:11;17.60;43.60
8188;DHT22;4135;49.184;9.722;2022-12-10T06:16:41;17.60;43.60
8188;DHT22;4135;49.184;9.722;2022-12-10T06:19:10;17.60;43.60
8188;DHT22;4135;49.184;9.722;2022-12-10T06:21:40;17.60;43.60
8188;DHT22;4135;49.184;9.722;2022-12-10T06:24:10;17.60;43.60
8188;DHT22;4135;49.184;9.722;2022-12-10T06:26:39;17.60;43.60
8188;DHT22;4135;49.184;9.722;2022-12-10T06:29:09;17.60;43.60
8188;DHT22;4135;49.184;9.722;2022-12-10T06:31:38;17.60;43.60
8188;DHT22;4135;49.184;9.722;2022-12-10T06:34:08;17.60;43.50
8188;DHT22;4135;49.184;9.722;2022-12-10T06:36:37;17.60;43.50
8188;DHT22;4135;49.184;9.722;2022-12-10T06:39:07;17.60;43.50
8188;DHT22;4135;49.184;9.722;2022-12-10T06:41:36;17.60;43.50
8188;DHT22;4135;49.184;9.722;2022-12-10T06:44:09;17.60;43.60
8188;DHT22;4135;49.184;9.722;2022-12-10T06:46:39;17.60;43.50
8188;DHT22;4135;49.184;9.722;2022-12-10T06:49:09;17.60;43.60
8188;DHT22;4135;49.184;9.722;2022-12-10T06:51:39;17.60;43.50
8188;DHT22;4135;49.184;9.722;2022-12-10T06:54:08;17.60;43.60
8188;DHT22;4135;49.184;9.722;2022-12-10T06:56:38;17.60;43.50
8188;DHT22;4135;49.184;9.722;2022-12-10T06:59:07;17.60;43.50
8188;DHT22;4135;49.184;9.722;2022-12-10T07:01:37;17.60;43.40
8188;DHT22;4135;49.184;9.722;2022-12-10T07:04:08;17.60;43.50
8188;DHT22;4135;49.184;9.722;2022-12-10T07:06:37;17.60;43.50
8188;DHT22;4135;49.184;9.722;2022-12-10T07:09:07;17.60;43.40
8188;DHT22;4135;49.184;9.722;2022-12-10T07:11:37;17.60;43.40
8188;DHT22;4135;49.184;9.722;2022-12-10T07:14:06;17.60;43.40
8188;DHT22;4135;49.184;9.722;2022-12-10T07:16:37;17.60;43.40
8188;DHT22;4135;49.184;9.722;2022-12-10T07:19:09;17.60;43.40
8188;DHT22;4135;49.184;9.722;2022-12-10T07:21:41;17.60;43.50
8188;DHT22;4135;49.184;9.722;2022-12-10T07:24:15;17.70;44.10
8188;DHT22;4135;49.184;9.722;2022-12-10T07:26:45;17.60;44.30
8188;DHT22;4135;49.184;9.722;2022-12-10T07:29:17;17.60;44.30
8188;DHT22;4135;49.184;9.722;2022-12-10T07:31:48;17.60;44.20
8188;DHT22;4135;49.184;9.722;2022-12-10T07:34:18;17.60;44.20
8188;DHT22;4135;49.184;9.722;2022-12-10T07:36:47;17.70;44.20
8188;DHT22;4135;49.184;9.722;2022-12-10T07:39:17;17.70;44.10
8188;DHT22;4135;49.184;9.722;2022-12-10T07:41:51;17.70;44.00
8188;DHT22;4135;49.184;9.722;2022-12-10T07:44:25;17.70;44.00
8188;DHT22;4135;49.184;9.722;2022-12-10T07:46:55;17.70;43.90
8188;DHT22;4135;49.184;9.722;2022-12-10T07:49:25;17.70;43.90
8188;DHT22;4135;49.184;9.722;2022-12-10T07:51:55;17.70;43.90
8188;DHT22;4135;49.184;9.722;2022-12-10T07:54:24;17.70;43.80
8188;DHT22;4135;49.184;9.722;2022-12-10T07:56:54;17.70;43.70
8188;DHT22;4135;49.184;9.722;2022-12-10T07:59:23;17.70;43.70
8188;DHT22;4135;49.184;9.722;2022-12-10T08:01:53;17.70;43.70
8188;DHT22;4135;49.184;9.722;2022-12-10T08:04:22;17.70;43.70
8188;DHT22;4135;49.184;9.722;2022-12-10T08:06:54;17.70;43.70
8188;DHT22;4135;49.184;9.722;2022-12-10T08:09:24;17.70;43.60
8188;DHT22;4135;49.184;9.722;2022-12-10T08:11:53;17.70;43.60
8188;DHT22;4135;49.184;9.722;2022-12-10T08:14:23;17.70;43.60
8188;DHT22;4135;49.184;9.722;2022-12-10T08:16:52;17.70;43.60
8188;DHT22;4135;49.184;9.722;2022-12-10T08:19:22;17.70;43.60
8188;DHT22;4135;49.184;9.722;2022-12-10T08:21:52;17.70;43.60
8188;DHT22;4135;49.184;9.722;2022-12-10T08:24:22;17.70;43.50
8188;DHT22;4135;49.184;9.722;2022-12-10T08:26:51;17.80;43.90
8188;DHT22;4135;49.184;9.722;2022-12-10T08:29:21;17.80;44.20
8188;DHT22;4135;49.184;9.722;2022-12-10T08:31:50;17.80;44.60
8188;DHT22;4135;49.184;9.722;2022-12-10T08:34:20;17.80;44.40
8188;DHT22;4135;49.184;9.722;2022-12-10T08:36:49;17.80;44.30
8188;DHT22;4135;49.184;9.722;2022-12-10T08:39:19;17.80;44.20
8188;DHT22;4135;49.184;9.722;2022-12-10T08:41:48;17.80;44.10
8188;DHT22;4135;49.184;9.722;2022-12-10T08:44:18;17.90;44.20
8188;DHT22;4135;49.184;9.722;2022-12-10T08:46:47;17.90;44.10
8188;DHT22;4135;49.184;9.722;2022-12-10T08:49:17;17.90;44.10
8188;DHT22;4135;49.184;9.722;2022-12-10T08:51:46;17.90;44.00
8188;DHT22;4135;49.184;9.722;2022-12-10T08:54:16;17.90;43.90
8188;DHT22;4135;49.184;9.722;2022-12-10T08:56:45;18.00;43.90
8188;DHT22;4135;49.184;9.722;2022-12-10T08:59:15;18.00;44.10
8188;DHT22;4135;49.184;9.722;2022-12-10T09:01:44;18.00;44.00
8188;DHT22;4135;49.184;9.722;2022-12-10T09:04:14;18.00;44.00
8188;DHT22;4135;49.184;9.722;2022-12-10T09:06:45;18.00;43.90
8188;DHT22;4135;49.184;9.722;2022-12-10T09:09:15;18.00;43.80
8188;DHT22;4135;49.184;9.722;2022-12-10T09:11:44;18.00;43.80
8188;DHT22;4135;49.184;9.722;2022-12-10T09:14:15;18.00;43.70
8188;DHT22;4135;49.184;9.722;2022-12-10T09:16:44;18.00;43.70
8188;DHT22;4135;49.184;9.722;2022-12-10T09:19:14;18.00;43.70
8188;DHT22;4135;49.184;9.722;2022-12-10T09:21:43;18.00;43.60
8188;DHT22;4135;49.184;9.722;2022-12-10T09:24:13;18.00;43.60
8188;DHT22;4135;49.184;9.722;2022-12-10T09:26:42;18.00;43.50
8188;DHT22;4135;49.184;9.722;2022-12-10T09:29:12;18.10;43.60
8188;DHT22;4135;49.184;9.722;2022-12-10T09:31:42;18.10;43.70
8188;DHT22;4135;49.184;9.722;2022-12-10T09:34:12;18.10;43.60
8188;DHT22;4135;49.184;9.722;2022-12-10T09:36:41;18.10;43.50
8188;DHT22;4135;49.184;9.722;2022-12-10T09:39:11;18.10;43.50
8188;DHT22;4135;49.184;9.722;2022-12-10T09:47:10;18.10;43.40
8188;DHT22;4135;49.184;9.722;2022-12-10T09:52:23;18.20;43.60
8188;DHT22;4135;49.184;9.722;2022-12-10T09:54:56;18.20;43.50
8188;DHT22;4135;49.184;9.722;2022-12-10T09:57:38;18.20;43.70
8188;DHT22;4135;49.184;9.722;2022-12-10T10:00:29;18.20;43.90
8188;DHT22;4135;49.184;9.722;2022-12-10T10:02:59;18.30;45.00
8188;DHT22;4135;49.184;9.722;2022-12-10T10:05:31;18.30;45.40
8188;DHT22;4135;49.184;9.722;2022-12-10T10:08:05;18.40;48.60
8188;DHT22;4135;49.184;9.722;2022-12-10T10:10:38;18.40;49.40
8188;DHT22;4135;49.184;9.722;2022-12-10T10:15:41;18.50;49.00
8188;DHT22;4135;49.184;9.722;2022-12-10T10:18:37;18.50;49.40
8188;DHT22;4135;49.184;9.722;2022-12-10T10:21:23;18.50;49.20
8188;DHT22;4135;49.184;9.722;2022-12-10T10:23:56;18.50;49.30
8188;DHT22;4135;49.184;9.722;2022-12-10T10:26:27;18.50;49.00
8188;DHT22;4135;49.184;9.722;2022-12-10T10:29:05;18.50;48.30
8188;DHT22;4135;49.184;9.722;2022-12-10T10:31:38;18.60;48.60
8188;DHT22;4135;49.184;9.722;2022-12-10T10:34:22;18.50;48.30
8188;DHT22;4135;49.184;9.722;2022-12-10T10:36:58;18.50;48.10
8188;DHT22;4135;49.184;9.722;2022-12-10T10:39:31;18.60;48.00
8188;DHT22;4135;49.184;9.722;2022-12-10T10:42:09;18.60;47.90
8188;DHT22;4135;49.184;9.722;2022-12-10T10:44:41;18.60;47.70
8188;DHT22;4135;49.184;9.722;2022-12-10T10:47:32;18.60;48.20
8188;DHT22;4135;49.184;9.722;2022-12-10T10:50:03;18.60;47.60
8188;DHT22;4135;49.184;9.722;2022-12-10T10:52:38;18.50;47.30
8188;DHT22;4135;49.184;9.722;2022-12-10T10:55:31;18.50;47.10
8188;DHT22;4135;49.184;9.722;2022-12-10T10:58:05;18.60;47.20
8188;DHT22;4135;49.184;9.722;2022-12-10T11:00:35;18.50;46.90
8188;DHT22;4135;49.184;9.722;2022-12-10T11:03:06;18.50;46.90
8188;DHT22;4135;49.184;9.722;2022-12-10T11:05:36;18.50;46.80
8188;DHT22;4135;49.184;9.722;2022-12-10T11:08:13;18.50;46.70
8188;DHT22;4135;49.184;9.722;2022-12-10T11:10:50;18.50;46.60
8188;DHT22;4135;49.184;9.722;2022-12-10T11:13:24;18.50;46.60
8188;DHT22;4135;49.184;9.722;2022-12-10T11:18:41;18.50;46.50
8188;DHT22;4135;49.184;9.722;2022-12-10T11:24:11;18.50;46.30
8188;DHT22;4135;49.184;9.722;2022-12-10T11:27:04;18.40;46.10
8188;DHT22;4135;49.184;9.722;2022-12-10T11:30:00;18.40;46.10
8188;DHT22;4135;49.184;9.722;2022-12-10T11:33:01;18.40;46.10
8188;DHT22;4135;49.184;9.722;2022-12-10T12:01:02;18.30;45.60
8188;DHT22;4135;49.184;9.722;2022-12-10T12:04:05;18.30;45.40
8188;DHT22;4135;49.184;9.722;2022-12-10T12:12:27;18.30;45.20
8188;DHT22;4135;49.184;9.722;2022-12-10T12:15:24;18.30;45.20
8188;DHT22;4135;49.184;9.722;2022-12-10T12:18:02;18.30;45.10
8188;DHT22;4135;49.184;9.722;2022-12-10T12:20:57;18.30;45.00
8188;DHT22;4135;49.184;9.722;2022-12-10T12:26:15;18.30;45.40
8188;DHT22;4135;49.184;9.722;2022-12-10T12:28:50;18.30;44.70
8188;DHT22;4135;49.184;9.722;2022-12-10T12:31:29;18.20;44.50
8188;DHT22;4135;49.184;9.722;2022-12-10T12:34:05;18.30;44.60
8188;DHT22;4135;49.184;9.722;2022-12-10T12:36:36;18.30;44.50
8188;DHT22;4135;49.184;9.722;2022-12-10T12:39:27;18.30;44.50
8188;DHT22;4135;49.184;9.722;2022-12-10T12:42:04;18.30;44.40
8188;DHT22;4135;49.184;9.722;2022-12-10T12:50:30;18.20;44.20
8188;DHT22;4135;49.184;9.722;2022-12-10T12:53:07;18.20;44.20
8188;DHT22;4135;49.184;9.722;2022-12-10T13:04:16;18.20;44.20
8188;DHT22;4135;49.184;9.722;2022-12-10T13:09:48;18.10;46.20
8188;DHT22;4135;49.184;9.722;2022-12-10T13:12:28;18.10;45.80
8188;DHT22;4135;49.184;9.722;2022-12-10T13:17:35;18.00;45.20
8188;DHT22;4135;49.184;9.722;2022-12-10T13:23:01;18.20;45.30
8188;DHT22;4135;49.184;9.722;2022-12-10T13:25:41;18.20;45.40
8188;DHT22;4135;49.184;9.722;2022-12-10T13:34:10;18.30;46.00
8188;DHT22;4135;49.184;9.722;2022-12-10T13:39:34;18.30;46.10
8188;DHT22;4135;49.184;9.722;2022-12-10T13:45:04;18.40;46.20
8188;DHT22;4135;49.184;9.722;2022-12-10T13:50:06;18.40;46.20
8188;DHT22;4135;49.184;9.722;2022-12-10T13:56:17;18.40;46.10
8188;DHT22;4135;49.184;9.722;2022-12-10T14:07:01;18.40;45.80
8188;DHT22;4135;49.184;9.722;2022-12-10T14:09:34;18.40;45.80
8188;DHT22;4135;49.184;9.722;2022-12-10T14:12:14;18.50;45.90
8188;DHT22;4135;49.184;9.722;2022-12-10T14:14:55;18.40;45.70
8188;DHT22;4135;49.184;9.722;2022-12-10T14:17:34;18.40;45.60
8188;DHT22;4135;49.184;9.722;2022-12-10T14:20:11;18.40;45.60
8188;DHT22;4135;49.184;9.722;2022-12-10T14:22:52;18.30;45.30
8188;DHT22;4135;49.184;9.722;2022-12-10T14:25:23;18.30;45.10
8188;DHT22;4135;49.184;9.722;2022-12-10T14:27:53;18.30;45.00
8188;DHT22;4135;49.184;9.722;2022-12-10T14:30:25;18.20;44.70
8188;DHT22;4135;49.184;9.722;2022-12-10T14:32:59;18.20;44.10
8188;DHT22;4135;49.184;9.722;2022-12-10T14:35:29;18.10;43.50
8188;DHT22;4135;49.184;9.722;2022-12-10T14:37:58;18.10;43.40
8188;DHT22;4135;49.184;9.722;2022-12-10T14:40:39;18.10;43.20
8188;DHT22;4135;49.184;9.722;2022-12-10T14:43:18;18.00;42.90
8188;DHT22;4135;49.184;9.722;2022-12-10T14:45:56;18.00;42.80
8188;DHT22;4135;49.184;9.722;2022-12-10T14:48:26;18.00;42.90
8188;DHT22;4135;49.184;9.722;2022-12-10T14:51:03;18.00;42.70
8188;DHT22;4135;49.184;9.722;2022-12-10T14:53:33;18.00;42.40
8188;DHT22;4135;49.184;9.722;2022-12-10T14:56:04;17.90;42.20
8188;DHT22;4135;49.184;9.722;2022-12-10T14:58:39;17.90;41.80
8188;DHT22;4135;49.184;9.722;2022-12-10T15:01:16;17.90;41.70
8188;DHT22;4135;49.184;9.722;2022-12-10T15:03:48;17.80;41.40
8188;DHT22;4135;49.184;9.722;2022-12-10T15:06:18;17.80;41.20
8188;DHT22;4135;49.184;9.722;2022-12-10T15:08:49;17.80;41.10
8188;DHT22;4135;49.184;9.722;2022-12-10T15:11:23;17.80;41.40
8188;DHT22;4135;49.184;9.722;2022-12-10T15:13:57;17.80;41.40
8188;DHT22;4135;49.184;9.722;2022-12-10T15:16:44;17.80;41.60
8188;DHT22;4135;49.184;9.722;2022-12-10T15:22:17;17.90;42.20
8188;DHT22;4135;49.184;9.722;2022-12-10T15:24:48;17.90;42.30
8188;DHT22;4135;49.184;9.722;2022-12-10T15:27:23;17.90;42.40
8188;DHT22;4135;49.184;9.722;2022-12-10T15:29:52;17.90;42.40
8188;DHT22;4135;49.184;9.722;2022-12-10T15:32:26;17.90;42.40
8188;DHT22;4135;49.184;9.722;2022-12-10T15:35:03;18.00;42.60
8188;DHT22;4135;49.184;9.722;2022-12-10T15:37:39;18.00;42.80
8188;DHT22;4135;49.184;9.722;2022-12-10T15:40:26;18.00;42.80
8188;DHT22;4135;49.184;9.722;2022-12-10T15:43:28;18.00;42.80
8188;DHT22;4135;49.184;9.722;2022-12-10T15:46:01;18.00;42.70
8188;DHT22;4135;49.184;9.722;2022-12-10T15:48:34;18.00;42.80
8188;DHT22;4135;49.184;9.722;2022-12-10T15:51:03;18.10;42.80
8188;DHT22;4135;49.184;9.722;2022-12-10T15:53:37;18.10;42.90
8188;DHT22;4135;49.184;9.722;2022-12-10T15:56:07;18.10;42.80
8188;DHT22;4135;49.184;9.722;2022-12-10T15:58:36;18.10;42.80
8188;DHT22;4135;49.184;9.722;2022-12-10T16:01:09;18.10;42.90
8188;DHT22;4135;49.184;9.722;2022-12-10T16:03:42;18.10;42.90
8188;DHT22;4135;49.184;9.722;2022-12-10T16:06:12;18.10;43.00
8188;DHT22;4135;49.184;9.722;2022-12-10T16:08:41;18.10;42.90
8188;DHT22;4135;49.184;9.722;2022-12-10T16:11:18;18.10;43.10
8188;DHT22;4135;49.184;9.722;2022-12-10T16:13:53;18.10;43.10
8188;DHT22;4135;49.184;9.722;2022-12-10T16:16:24;18.10;43.20
8188;DHT22;4135;49.184;9.722;2022-12-10T16:18:54;18.10;43.30
8188;DHT22;4135;49.184;9.722;2022-12-10T16:21:23;18.20;43.50
8188;DHT22;4135;49.184;9.722;2022-12-10T16:23:53;18.20;43.50
8188;DHT22;4135;49.184;9.722;2022-12-10T16:26:23;18.20;43.60
8188;DHT22;4135;49.184;9.722;2022-12-10T16:28:52;18.20;43.50
8188;DHT22;4135;49.184;9.722;2022-12-10T16:31:23;18.20;43.60
8188;DHT22;4135;49.184;9.722;2022-12-10T16:33:52;18.20;43.60
8188;DHT22;4135;49.184;9.722;2022-12-10T16:36:24;18.20;43.60
8188;DHT22;4135;49.184;9.722;2022-12-10T16:38:54;18.20;43.60
8188;DHT22;4135;49.184;9.722;2022-12-10T16:41:24;18.20;43.50
8188;DHT22;4135;49.184;9.722;2022-12-10T16:43:53;18.20;43.50
8188;DHT22;4135;49.184;9.722;2022-12-10T16:46:23;18.20;43.50
8188;DHT22;4135;49.184;9.722;2022-12-10T16:48:53;18.20;43.50
8188;DHT22;4135;49.184;9.722;2022-12-10T16:51:23;18.20;43.60
8188;DHT22;4135;49.184;9.722;2022-12-10T16:53:53;18.20;43.50
8188;DHT22;4135;49.184;9.722;2022-12-10T16:56:23;18.20;43.50
8188;DHT22;4135;49.184;9.722;2022-12-10T16:58:52;18.20;43.50
8188;DHT22;4135;49.184;9.722;2022-12-10T17:01:27;18.30;44.20
8188;DHT22;4135;49.184;9.722;2022-12-10T17:03:57;18.30;44.40
8188;DHT22;4135;49.184;9.722;2022-12-10T17:06:32;18.30;44.30
8188;DHT22;4135;49.184;9.722;2022-12-10T17:09:02;18.20;44.30
8188;DHT22;4135;49.184;9.722;2022-12-10T17:11:41;18.20;44.20
8188;DHT22;4135;49.184;9.722;2022-12-10T17:14:40;18.20;44.30
8188;DHT22;4135;49.184;9.722;2022-12-10T17:17:11;18.20;44.10
8188;DHT22;4135;49.184;9.722;2022-12-10T17:19:41;18.20;44.10
8188;DHT22;4135;49.184;9.722;2022-12-10T17:22:11;18.10;44.00
8188;DHT22;4135;49.184;9.722;2022-12-10T17:24:42;18.10;43.90
8188;DHT22;4135;49.184;9.722;2022-12-10T17:27:18;18.10;43.90
8188;DHT22;4135;49.184;9.722;2022-12-10T17:29:49;18.10;44.00
8188;DHT22;4135;49.184;9.722;2022-12-10T17:32:26;18.10;43.90
8188;DHT22;4135;49.184;9.722;2022-12-10T17:34:55;18.00;43.70
8188;DHT22;4135;49.184;9.722;2022-12-10T17:37:28;18.00;43.70
8188;DHT22;4135;49.184;9.722;2022-12-10T17:39:59;18.00;43.80
8188;DHT22;4135;49.184;9.722;2022-12-10T17:42:29;18.00;43.70
8188;DHT22;4135;49.184;9.722;2022-12-10T17:44:58;18.00;43.70
8188;DHT22;4135;49.184;9.722;2022-12-10T17:47:28;17.90;43.60
8188;DHT22;4135;49.184;9.722;2022-12-10T17:49:58;18.00;43.80
8188;DHT22;4135;49.184;9.722;2022-12-10T17:52:28;17.90;43.60
8188;DHT22;4135;49.184;9.722;2022-12-10T17:54:57;18.00;43.70
8188;DHT22;4135;49.184;9.722;2022-12-10T17:57:27;17.90;43.60
8188;DHT22;4135;49.184;9.722;2022-12-10T17:59:57;17.90;43.60
8188;DHT22;4135;49.184;9.722;2022-12-10T18:02:26;17.90;43.50
8188;DHT22;4135;49.184;9.722;2022-12-10T18:04:56;17.90;43.60
8188;DHT22;4135;49.184;9.722;2022-12-10T18:07:25;17.90;43.60
8188;DHT22;4135;49.184;9.722;2022-12-10T18:09:55;17.90;43.60
8188;DHT22;4135;49.184;9.722;2022-12-10T18:12:25;17.90;43.60
8188;DHT22;4135;49.184;9.722;2022-12-10T18:14:54;17.90;43.70
8188;DHT22;4135;49.184;9.722;2022-12-10T18:17:24;17.90;43.60
8188;DHT22;4135;49.184;9.722;2022-12-10T18:19:53;17.90;43.90
8188;DHT22;4135;49.184;9.722;2022-12-10T18:22:23;17.90;44.10
8188;DHT22;4135;49.184;9.722;2022-12-10T18:24:52;17.90;44.20
8188;DHT22;4135;49.184;9.722;2022-12-10T18:27:22;18.00;44.30
8188;DHT22;4135;49.184;9.722;2022-12-10T18:29:51;18.00;44.30
8188;DHT22;4135;49.184;9.722;2022-12-10T18:32:21;18.10;44.30